Time;durP1;ratioP1;P1;durP2;ratioP2;P2;SDS_P1;SDS_P2;PMS_P1;PMS_P2;Temp;Humidity;BMP_temperature;BMP_pressure;BME280_temperature;BME280_humidity;BME280_pressure;Samples;Min_cycle;Max_cycle;Signal;HPM_P1;HPM_P2
2023/08/31 09:26:12;;;;;;;735.63;640.38;;;;;;;;;;5059263;27;20416;-39
2023/08/31 09:28:41;;;;;;;642.25;539.13;;;;;;;;;;5027678;28;56657;-42
2023/08/31 09:46:17;;;;;;;1721.63;999.90;;;;;;;21.76;64.56;100138.53;5086227;27;97823;-59
2023/08/31 09:52:11;;;;;;;865.95;698.55;;;;;;;21.81;63.86;100141.28;7172505;19;104918;-59
2023/08/31 09:54:38;;;;;;;1048.93;840.08;;;;;;;21.88;63.79;100133.75;7406032;19;20362;-64
2023/08/31 09:58:01;;;;;;;877.10;739.55;;;;;;;21.96;63.05;100135.94;7419977;19;20351;-64
2023/08/31 10:00:42;;;;;;;978.63;779.97;;;;;;;22.04;63.06;100141.91;7383125;19;20352;-65
2023/08/31 10:03:14;;;;;;;1546.17;998.53;;;;;;;22.09;62.73;100152.75;7403681;19;20376;-63
2023/08/31 10:05:47;;;;;;;1999.90;999.90;;;;;;;22.15;62.92;100138.19;7430876;19;20340;-59
2023/08/31 10:08:15;;;;;;;1267.18;946.85;;;;;;;22.19;62.32;100145.47;7428817;19;20352;-61
2023/08/31 10:10:42;;;;;;;799.17;681.20;;;;;;;22.24;62.15;100142.00;7427840;19;20364;-61
2023/08/31 10:13:11;;;;;;;606.88;489.50;;;;;;;22.29;61.67;100147.44;7402126;19;103857;-61
2023/08/31 10:15:39;;;;;;;1999.90;999.90;;;;;;;22.34;61.84;100142.03;7425561;19;20862;-63
2023/08/31 10:18:07;;;;;;;740.50;644.97;;;;;;;22.41;61.72;100130.16;7424928;19;20360;-62
2023/08/31 10:24:58;;;;;;;3.53;2.30;;;;;;;21.36;54.86;100148.03;7311836;19;101844;-56
2023/08/31 10:27:27;;;;;;;3.28;2.03;;;;;;;20.75;55.95;100149.16;7284040;19;1005407;-55
2023/08/31 10:29:54;;;;;;;3.28;1.80;;;;;;;20.56;55.42;100147.88;7130705;19;108123;-57
2023/08/31 10:32:21;;;;;;;3.17;2.07;;;;;;;20.09;57.46;100143.06;7428284;19;20366;-55
2023/08/31 10:35:05;;;;;;;3.20;1.80;;;;;;;19.69;58.66;100152.22;7425813;19;20401;-55
2023/08/31 10:37:32;;;;;;;3.33;2.25;;;;;;;19.48;58.33;100149.22;7426778;19;20355;-56
2023/08/31 10:40:11;;;;;;;2.63;2.10;;;;;;;19.37;59.59;100147.47;7430831;19;20355;-55
2023/08/31 10:42:43;;;;;;;3.13;2.10;;;;;;;19.37;58.74;100154.72;7425749;19;20403;-57
2023/08/31 10:45:10;;;;;;;2.97;2.08;;;;;;;19.24;59.78;100153.19;7430142;19;20370;-56
2023/08/31 10:47:41;;;;;;;3.35;2.30;;;;;;;19.19;60.26;100147.72;7426673;19;20435;-57
2023/08/31 10:50:21;;;;;;;3.75;2.30;;;;;;;19.15;59.47;100139.34;7429696;19;20360;-53
2023/08/31 10:52:49;;;;;;;2.92;2.20;;;;;;;19.15;60.55;100142.84;7425330;19;20682;-56
2023/08/31 10:55:16;;;;;;;3.92;2.90;;;;;;;19.13;60.78;100154.91;7426177;19;20344;-56
2023/08/31 10:57:43;;;;;;;3.70;2.72;;;;;;;19.07;60.51;100151.31;7427826;19;20344;-57
2023/08/31 11:00:11;;;;;;;3.30;2.60;;;;;;;18.94;59.86;100152.44;7429584;19;20343;-54
2023/08/31 11:02:43;;;;;;;3.90;2.33;;;;;;;18.90;59.34;100145.94;7426941;19;20919;-55
2023/08/31 11:05:15;;;;;;;2.60;2.03;;;;;;;18.81;59.18;100151.97;7426441;19;20378;-53
2023/08/31 11:07:47;;;;;;;4.22;2.28;;;;;;;18.88;59.89;100139.97;7427684;19;20355;-56
2023/08/31 11:10:27;;;;;;;3.33;2.40;;;;;;;18.96;59.80;100154.91;7426003;19;20370;-55
2023/08/31 11:12:57;;;;;;;4.07;2.60;;;;;;;18.97;59.94;100159.22;7427386;19;20364;-55
2023/08/31 11:15:31;;;;;;;3.83;2.60;;;;;;;18.97;59.04;100153.03;7424911;19;20351;-56
2023/08/31 11:17:58;;;;;;;4.00;2.40;;;;;;;19.03;59.97;100142.09;7427507;19;20359;-56
2023/08/31 11:20:28;;;;;;;3.63;2.30;;;;;;;19.07;59.64;100143.25;7423653;19;20364;-54
2023/08/31 11:22:56;;;;;;;6.80;3.90;;;;;;;18.97;59.70;100159.22;7428643;19;20372;-56
2023/08/31 11:25:24;;;;;;;13.38;11.15;;;;;;;18.98;61.40;100142.03;7427789;19;20356;-55
2023/08/31 11:27:56;;;;;;;19.10;12.52;;;;;;;19.04;60.73;100141.06;7424976;19;20360;-51
2023/08/31 11:30:24;;;;;;;35.90;25.95;;;;;;;19.07;59.92;100150.50;7428943;19;20328;-55
2023/08/31 11:32:52;;;;;;;8.40;5.90;;;;;;;19.18;59.95;100146.09;7425239;19;20375;-53
2023/08/31 11:35:23;;;;;;;8.27;5.68;;;;;;;19.29;58.34;100139.81;7404259;19;20361;-55
2023/08/31 11:37:52;;;;;;;8.27;5.53;;;;;;;19.62;58.97;100147.03;7395509;19;20777;-50
2023/08/31 11:40:19;;;;;;;3.88;2.70;;;;;;;19.69;55.38;100131.50;7399089;19;20361;-51
2023/08/31 11:42:48;;;;;;;5.80;4.03;;;;;;;19.77;55.68;100135.69;7396946;19;20397;-51
2023/08/31 11:45:15;;;;;;;14.50;11.18;;;;;;;20.12;57.00;100134.47;7397228;19;20352;-53
2023/08/31 11:47:43;;;;;;;3.77;2.77;;;;;;;20.52;55.43;100144.88;7395243;19;20360;-52
2023/08/31 11:50:12;;;;;;;9.52;7.47;;;;;;;20.74;53.59;100147.56;7397371;19;20369;-52
2023/08/31 11:52:41;;;;;;;14.18;9.65;;;;;;;20.73;52.16;100145.91;7396853;19;20752;-55
2023/08/31 11:55:17;;;;;;;13.68;9.75;;;;;;;21.00;52.21;100138.88;7396005;19;20360;-52
2023/08/31 11:57:51;;;;;;;9.87;6.37;;;;;;;21.12;52.04;100143.00;7392052;19;20736;-54
2023/08/31 12:00:20;;;;;;;5.10;3.27;;;;;;;21.07;51.76;100142.97;7393206;19;20368;-54
2023/08/31 12:03:00;;;;;;;3.13;2.15;;;;;;;20.95;50.11;100150.41;7397177;19;20372;-55
2023/08/31 12:05:29;;;;;;;4.63;2.47;;;;;;;21.20;51.05;100135.50;7394883;19;20783;-56
2023/08/31 12:07:56;;;;;;;2.30;1.63;;;;;;;21.45;49.67;100141.09;7396798;19;20367;-56
2023/08/31 12:10:27;;;;;;;2.63;1.60;;;;;;;21.83;48.69;100139.13;7396055;19;20351;-54
2023/08/31 12:12:55;;;;;;;4.13;2.53;;;;;;;22.13;48.09;100145.75;7397594;19;21178;-55
2023/08/31 12:15:23;;;;;;;5.53;3.60;;;;;;;22.57;47.16;100138.03;7395164;19;20387;-54
2023/08/31 12:17:54;;;;;;;3.95;2.30;;;;;;;23.08;46.21;100139.97;7395040;19;20356;-52
2023/08/31 12:20:26;;;;;;;8.30;5.18;;;;;;;23.29;43.54;100140.78;7394452;19;20385;-56
2023/08/31 12:22:53;;;;;;;5.33;4.20;;;;;;;23.76;42.18;100136.09;7397418;19;20373;-56
2023/08/31 12:25:21;;;;;;;4.97;3.30;;;;;;;24.02;42.53;100151.13;7397606;19;20431;-53
2023/08/31 12:27:48;;;;;;;3.53;1.50;;;;;;;23.67;41.11;100156.63;7392422;19;21665;-55
2023/08/31 12:30:15;;;;;;;6.85;5.13;;;;;;;24.67;39.73;100139.38;7390628;19;20360;-52
2023/08/31 12:32:42;;;;;;;11.07;9.23;;;;;;;26.28;37.44;100156.50;7394054;19;20360;-55
2023/08/31 12:35:11;;;;;;;10.55;9.07;;;;;;;27.71;34.70;100154.16;7397177;19;20369;-58
2023/08/31 12:37:38;;;;;;;4.65;3.28;;;;;;;29.23;32.71;100137.38;7392313;19;20344;-56
2023/08/31 12:40:06;;;;;;;7.75;5.80;;;;;;;30.34;30.80;100128.22;7396260;19;20328;-57
2023/08/31 12:42:33;;;;;;;5.93;4.60;;;;;;;30.63;29.71;100140.47;7394965;19;20376;-54
2023/08/31 12:45:01;;;;;;;3.17;1.80;;;;;;;30.43;30.16;100136.44;7389445;19;20360;-52
2023/08/31 12:47:27;;;;;;;7.28;5.07;;;;;;;29.39;31.33;100145.97;7390984;19;20364;-55
2023/08/31 12:49:54;;;;;;;2.55;1.00;;;;;;;28.53;32.94;100157.13;7393772;19;20360;-56
2023/08/31 12:52:21;;;;;;;2.10;0.80;;;;;;;28.39;32.83;100154.41;7396644;19;20439;-54
2023/08/31 12:54:47;;;;;;;3.05;1.90;;;;;;;27.62;33.52;100155.97;7393029;19;21251;-53
2023/08/31 12:57:14;;;;;;;3.40;2.20;;;;;;;26.82;34.99;100166.91;7396364;19;20357;-55
2023/08/31 12:59:42;;;;;;;4.53;2.95;;;;;;;26.22;36.62;100155.75;7395627;19;20337;-56
2023/08/31 13:02:11;;;;;;;2.47;1.48;;;;;;;25.63;38.22;100174.13;7394879;19;20759;-54
2023/08/31 13:04:39;;;;;;;7.00;5.73;;;;;;;25.13;37.90;100168.88;7388239;19;20356;-50
2023/08/31 13:07:07;;;;;;;7.60;6.07;;;;;;;24.65;39.60;100160.56;7387109;19;20371;-52
2023/08/31 13:09:34;;;;;;;3.67;1.55;;;;;;;24.16;39.82;100162.19;7396090;19;20916;-57
2023/08/31 13:12:00;;;;;;;1.95;1.00;;;;;;;23.74;40.91;100165.31;7393988;19;20374;-58
2023/08/31 13:14:27;;;;;;;1.67;0.80;;;;;;;24.54;41.60;100164.44;7393196;19;20353;-59
2023/08/31 13:16:55;;;;;;;2.30;0.80;;;;;;;25.36;39.24;100167.34;7392166;19;21353;-59
2023/08/31 13:19:22;;;;;;;1.95;0.80;;;;;;;27.24;35.69;100150.69;7393552;19;20432;-59
2023/08/31 13:21:49;;;;;;;2.50;0.77;;;;;;;27.07;34.87;100162.13;7384770;19;20387;-56
2023/08/31 13:24:16;;;;;;;1.42;0.50;;;;;;;27.71;35.02;100175.97;7394182;19;20957;-56
2023/08/31 13:26:47;;;;;;;1.30;0.60;;;;;;;27.01;35.01;100169.59;7392421;19;20358;-56
2023/08/31 13:29:14;;;;;;;1.60;0.60;;;;;;;26.07;36.56;100188.59;7395862;19;20364;-56
2023/08/31 13:31:42;;;;;;;2.78;0.65;;;;;;;25.22;38.04;100175.31;7391139;19;20352;-56
2023/08/31 13:34:08;;;;;;;1.80;0.70;;;;;;;24.64;39.49;100174.41;7392938;19;20348;-56
2023/08/31 13:36:36;;;;;;;1.70;0.70;;;;;;;23.89;41.45;100176.13;7391253;19;20368;-55
2023/08/31 13:39:03;;;;;;;1.70;0.63;;;;;;;23.46;42.59;100189.19;7387899;19;20360;-56
2023/08/31 13:41:30;;;;;;;1.37;0.60;;;;;;;22.66;43.43;100181.56;7391934;19;20360;-58
2023/08/31 13:43:57;;;;;;;2.95;0.77;;;;;;;22.14;45.56;100206.78;7393420;19;20368;-59
2023/08/31 13:46:24;;;;;;;2.15;0.90;;;;;;;21.61;44.66;100197.84;7393178;19;20372;-57
2023/08/31 13:48:51;;;;;;;1.50;0.43;;;;;;;21.29;43.60;100193.28;7385247;19;20455;-58
2023/08/31 13:51:17;;;;;;;2.22;0.20;;;;;;;21.00;44.44;100196.31;7389831;19;20522;-58
2023/08/31 13:53:45;;;;;;;1.02;0.32;;;;;;;20.62;46.11;100225.03;7392408;19;20704;-59
2023/08/31 13:56:12;;;;;;;1.57;0.30;;;;;;;20.41;47.55;100207.00;7389462;19;20432;-57
2023/08/31 13:58:38;;;;;;;1.40;0.35;;;;;;;20.19;49.12;100215.91;7389799;19;21146;-57
2023/08/31 14:01:05;;;;;;;1.08;0.30;;;;;;;19.91;49.83;100206.94;7389538;19;20763;-57
2023/08/31 14:03:32;;;;;;;0.52;0.20;;;;;;;19.64;50.55;100220.25;7390102;19;20364;-56
2023/08/31 14:05:59;;;;;;;1.83;0.47;;;;;;;19.48;53.84;100232.63;7391071;19;20479;-58
2023/08/31 14:08:25;;;;;;;0.98;0.30;;;;;;;19.17;56.11;100254.69;7387334;19;20796;-56
2023/08/31 14:10:54;;;;;;;2.15;0.45;;;;;;;18.85;60.71;100256.03;7391643;19;20352;-58
2023/08/31 14:13:21;;;;;;;1.05;0.30;;;;;;;18.36;65.48;100268.19;7390540;19;20998;-59
2023/08/31 14:15:47;;;;;;;1.42;0.50;;;;;;;18.08;65.90;100267.88;7389182;19;20439;-59
2023/08/31 14:18:14;;;;;;;0.85;0.30;;;;;;;17.83;66.06;100251.19;7390067;19;20893;-58
2023/08/31 14:20:42;;;;;;;2.05;0.45;;;;;;;17.73;65.03;100268.66;7388697;19;20438;-58
2023/08/31 14:23:09;;;;;;;1.30;0.50;;;;;;;17.84;69.41;100256.34;7388671;19;20759;-58
2023/08/31 14:25:38;;;;;;;1.63;0.40;;;;;;;17.69;68.40;100258.66;7392485;19;20443;-58
2023/08/31 14:28:05;;;;;;;2.53;0.70;;;;;;;17.69;67.04;100261.31;7387351;19;20712;-58
2023/08/31 14:30:32;;;;;;;1.20;0.30;;;;;;;17.70;68.15;100254.91;7391103;19;20374;-58
2023/08/31 14:32:59;;;;;;;1.35;0.50;;;;;;;17.97;67.45;100265.22;7389549;19;20376;-59
2023/08/31 14:35:25;;;;;;;1.88;0.38;;;;;;;18.36;65.14;100244.84;7392622;19;20460;-57
2023/08/31 14:37:52;;;;;;;1.63;0.30;;;;;;;18.71;63.32;100250.09;7387773;19;20398;-58
2023/08/31 14:40:19;;;;;;;1.13;0.30;;;;;;;19.26;60.50;100264.00;7388108;19;20360;-58
2023/08/31 14:42:46;;;;;;;0.80;0.30;;;;;;;19.93;57.66;100260.50;7391556;19;20752;-58
2023/08/31 14:45:13;;;;;;;1.55;0.55;;;;;;;20.50;56.07;100260.16;7388985;19;20372;-58
2023/08/31 14:47:40;;;;;;;1.75;0.50;;;;;;;21.05;54.01;100266.47;7388013;19;20756;-58
2023/08/31 14:50:07;;;;;;;6.03;3.38;;;;;;;21.33;52.77;100267.25;7389134;19;20375;-52
2023/08/31 14:52:34;;;;;;;1.93;0.90;;;;;;;21.14;53.75;100259.53;7382272;19;20445;-69
2023/08/31 14:55:03;;;;;;;2.58;0.45;;;;;;;20.86;53.53;100267.88;7389882;19;20357;-64
2023/08/31 14:57:30;;;;;;;1.15;0.50;;;;;;;20.43;54.25;100291.88;7389492;19;20368;-64
2023/08/31 14:59:58;;;;;;;1.30;0.70;;;;;;;20.02;55.73;100290.50;7392491;19;20868;-64
2023/08/31 15:02:29;;;;;;;2.90;0.60;;;;;;;19.69;56.45;100297.53;7388188;19;20431;-64
2023/08/31 15:04:56;;;;;;;1.85;0.40;;;;;;;19.48;57.17;100297.19;7380591;19;20356;-65
2023/08/31 15:07:23;;;;;;;2.00;0.40;;;;;;;19.25;57.78;100290.06;7384662;19;20444;-64
2023/08/31 15:09:52;;;;;;;1.77;0.50;;;;;;;19.13;58.00;100290.16;7393050;19;20344;-64
2023/08/31 15:12:18;;;;;;;2.17;0.70;;;;;;;18.97;58.39;100296.28;7396532;19;20368;-64
2023/08/31 15:14:45;;;;;;;3.15;0.60;;;;;;;18.73;59.24;100299.03;7395443;19;20420;-64
2023/08/31 15:17:12;;;;;;;2.30;0.80;;;;;;;18.61;59.43;100309.00;7397442;19;20370;-64
2023/08/31 15:19:41;;;;;;;1.10;0.40;;;;;;;18.44;58.33;100302.72;7397375;19;20722;-64
2023/08/31 15:22:08;;;;;;;1.80;0.40;;;;;;;18.30;58.61;100302.19;7391879;19;20694;-64
2023/08/31 15:24:36;;;;;;;1.30;0.55;;;;;;;18.24;58.94;100298.56;7396194;19;20372;-64
2023/08/31 15:27:03;;;;;;;1.80;0.52;;;;;;;18.30;59.31;100297.63;7396245;19;20345;-64
2023/08/31 15:29:31;;;;;;;3.45;0.60;;;;;;;18.36;59.13;100273.56;7393024;19;20376;-65
2023/08/31 15:31:59;;;;;;;2.42;0.57;;;;;;;18.42;59.66;100288.72;7393980;19;20455;-64
2023/08/31 15:34:26;;;;;;;2.00;0.80;;;;;;;18.49;59.58;100289.44;7395930;19;20456;-65
2023/08/31 15:36:53;;;;;;;1.38;0.40;;;;;;;18.52;59.17;100289.75;7392422;19;20368;-64
2023/08/31 15:39:22;;;;;;;3.20;0.63;;;;;;;18.44;58.79;100303.53;7393414;19;20414;-64
2023/08/31 15:41:48;;;;;;;2.35;0.60;;;;;;;18.29;58.25;100295.97;7397947;19;20357;-65
2023/08/31 15:44:15;;;;;;;1.93;0.60;;;;;;;18.23;59.46;100310.34;7399347;19;20375;-65
2023/08/31 15:46:42;;;;;;;2.97;0.93;;;;;;;18.13;59.71;100315.50;7392579;19;20356;-65
2023/08/31 15:49:09;;;;;;;2.03;0.90;;;;;;;18.02;60.75;100343.97;7393581;19;20419;-65
2023/08/31 15:51:35;;;;;;;2.80;0.80;;;;;;;18.01;61.50;100325.41;7393410;19;20356;-65
2023/08/31 15:54:04;;;;;;;1.80;0.52;;;;;;;17.90;61.87;100319.81;7397788;19;20699;-64
2023/08/31 15:56:32;;;;;;;4.00;0.80;;;;;;;17.89;61.99;100322.72;7396468;19;20922;-65
2023/08/31 15:58:59;;;;;;;2.87;0.80;;;;;;;17.94;62.70;100322.84;7397849;19;20337;-64
2023/08/31 16:01:26;;;;;;;2.47;0.60;;;;;;;17.93;63.21;100315.84;7394414;19;20360;-64
2023/08/31 16:03:53;;;;;;;2.03;0.63;;;;;;;17.91;63.28;100321.47;7396289;19;20372;-64
2023/08/31 16:06:20;;;;;;;2.38;0.80;;;;;;;17.91;63.44;100323.31;7391916;19;20415;-65
2023/08/31 16:08:47;;;;;;;5.07;0.90;;;;;;;17.84;63.34;100326.09;7398029;19;20377;-65
2023/08/31 16:11:13;;;;;;;3.50;0.80;;;;;;;17.85;63.91;100311.66;7397101;19;20339;-65
2023/08/31 16:13:41;;;;;;;4.00;0.80;;;;;;;17.84;63.89;100315.38;7395611;19;20894;-65
2023/08/31 16:16:08;;;;;;;2.90;0.80;;;;;;;17.76;64.26;100306.81;7395858;19;20372;-65
2023/08/31 16:18:35;;;;;;;3.83;1.05;;;;;;;17.74;64.71;100312.41;7397756;19;20368;-65
2023/08/31 16:21:04;;;;;;;3.20;1.02;;;;;;;17.76;64.51;100313.00;7395725;19;20408;-65
2023/08/31 16:23:31;;;;;;;2.97;0.90;;;;;;;17.78;65.30;100307.41;7392081;19;20694;-65
2023/08/31 16:25:58;;;;;;;2.97;1.00;;;;;;;17.86;65.40;100305.22;7392691;19;20368;-65
2023/08/31 16:28:25;;;;;;;3.85;1.48;;;;;;;17.91;64.97;100307.19;7397688;19;20373;-64
2023/08/31 16:30:52;;;;;;;6.20;1.80;;;;;;;17.98;65.68;100304.41;7393526;19;20368;-64
2023/08/31 16:33:19;;;;;;;2.90;0.98;;;;;;;18.52;63.91;100302.38;7393934;19;20935;-64
2023/08/31 16:35:48;;;;;;;2.58;0.95;;;;;;;19.68;60.37;100295.91;7394204;19;20436;-65
2023/08/31 16:38:17;;;;;;;2.40;0.70;;;;;;;20.29;58.40;100301.38;7394396;19;20363;-65
2023/08/31 16:40:45;;;;;;;4.60;1.48;;;;;;;20.44;57.84;100292.69;7394306;19;20389;-64
2023/08/31 16:43:12;;;;;;;3.08;0.70;;;;;;;20.22;58.00;100306.97;7393354;19;20400;-64
2023/08/31 16:45:39;;;;;;;3.10;0.80;;;;;;;19.98;58.67;100300.97;7392912;19;20455;-65
2023/08/31 16:48:06;;;;;;;2.92;0.93;;;;;;;19.82;59.80;100302.59;7387387;19;20367;-65
2023/08/31 16:50:34;;;;;;;4.57;1.20;;;;;;;19.74;60.55;100308.41;7393090;19;20364;-64
2023/08/31 16:53:03;;;;;;;5.13;1.70;;;;;;;19.59;60.02;100305.44;7394637;19;20360;-65
2023/08/31 16:55:30;;;;;;;3.38;0.80;;;;;;;19.40;60.56;100311.03;7396482;19;20361;-65
2023/08/31 16:57:58;;;;;;;3.53;1.80;;;;;;;19.20;61.49;100308.00;7394871;19;20409;-64
2023/08/31 17:00:25;;;;;;;3.42;1.00;;;;;;;19.00;61.46;100306.59;7391848;19;20396;-64
2023/08/31 17:02:52;;;;;;;2.50;0.88;;;;;;;18.78;62.42;100314.47;7392259;19;20365;-64
2023/08/31 17:05:19;;;;;;;3.85;1.10;;;;;;;18.61;62.79;100319.75;7391383;19;20353;-64
2023/08/31 17:07:46;;;;;;;20.60;15.30;;;;;;;18.46;64.00;100316.75;7392565;19;20424;-65
2023/08/31 17:10:12;;;;;;;2.83;1.30;;;;;;;18.42;64.81;100316.38;7394860;19;20379;-64
2023/08/31 17:12:39;;;;;;;5.13;2.15;;;;;;;18.59;64.47;100313.78;7393477;19;20388;-64
2023/08/31 17:15:09;;;;;;;3.80;1.00;;;;;;;18.83;63.97;100308.38;7388708;19;20900;-64
2023/08/31 17:17:37;;;;;;;5.20;1.13;;;;;;;19.26;63.15;100302.47;7393866;19;20344;-64
2023/08/31 17:20:06;;;;;;;4.45;1.00;;;;;;;19.78;60.79;100296.09;7390115;19;20908;-64
2023/08/31 17:22:33;;;;;;;3.05;1.40;;;;;;;20.17;59.77;100294.25;7387539;19;20866;-65
2023/08/31 17:25:00;;;;;;;3.08;1.70;;;;;;;20.93;57.46;100298.16;7391935;19;20427;-64
2023/08/31 17:27:28;;;;;;;4.45;2.03;;;;;;;21.72;54.78;100291.34;7394130;19;20352;-64
2023/08/31 17:29:56;;;;;;;3.13;1.40;;;;;;;22.27;52.89;100278.47;7393415;19;20690;-65
2023/08/31 17:32:22;;;;;;;3.35;0.88;;;;;;;22.72;50.49;100277.03;7390460;19;20368;-64
2023/08/31 17:34:49;;;;;;;3.17;1.10;;;;;;;23.04;49.91;100279.56;7392698;19;20369;-65
2023/08/31 17:37:16;;;;;;;2.47;0.90;;;;;;;23.33;48.93;100276.34;7392076;19;20380;-65
2023/08/31 17:39:43;;;;;;;3.03;0.93;;;;;;;23.49;48.39;100280.69;7393367;19;20350;-64
2023/08/31 17:42:10;;;;;;;2.03;0.77;;;;;;;23.51;47.44;100281.22;7382242;19;20395;-64
2023/08/31 17:44:36;;;;;;;2.15;0.70;;;;;;;23.67;47.88;100284.72;7383948;19;20360;-65
2023/08/31 17:47:03;;;;;;;3.40;0.80;;;;;;;23.60;47.61;100292.31;7383535;19;20360;-65
2023/08/31 17:49:30;;;;;;;2.10;0.70;;;;;;;23.20;47.71;100310.97;7383842;19;20355;-65
2023/08/31 17:51:57;;;;;;;2.28;0.60;;;;;;;22.75;48.68;100304.34;7383565;19;20363;-65
2023/08/31 17:54:24;;;;;;;3.63;0.80;;;;;;;22.27;49.79;100311.72;7380315;19;20444;-65
2023/08/31 17:56:51;;;;;;;1.95;0.60;;;;;;;21.65;50.71;100315.03;7383986;19;20387;-65
2023/08/31 17:59:18;;;;;;;1.50;0.50;;;;;;;21.02;52.19;100326.31;7383901;19;20375;-65
2023/08/31 18:01:45;;;;;;;2.13;0.68;;;;;;;20.30;53.31;100322.69;7380198;19;21030;-64
2023/08/31 18:04:12;;;;;;;4.47;0.90;;;;;;;19.66;55.78;100338.41;7379601;19;20364;-65
2023/08/31 18:06:39;;;;;;;2.28;0.70;;;;;;;19.05;57.08;100336.22;7381767;19;20375;-65
2023/08/31 18:09:08;;;;;;;2.17;0.60;;;;;;;18.47;58.00;100329.94;7383694;19;20447;-65
2023/08/31 18:11:36;;;;;;;2.47;0.70;;;;;;;18.00;59.57;100340.72;7383710;19;20999;-65
2023/08/31 18:14:03;;;;;;;2.67;0.60;;;;;;;17.55;61.35;100345.72;7380834;19;20399;-65
2023/08/31 18:16:31;;;;;;;3.03;0.60;;;;;;;17.23;62.32;100348.66;7384179;19;20395;-65
2023/08/31 18:18:57;;;;;;;1.65;0.60;;;;;;;16.98;63.68;100354.13;7381900;19;20461;-65
2023/08/31 18:21:25;;;;;;;2.47;0.70;;;;;;;16.77;64.51;100355.41;7380711;19;20359;-65
2023/08/31 18:23:51;;;;;;;2.60;0.90;;;;;;;16.52;65.55;100361.66;7382790;19;20360;-65
2023/08/31 18:26:18;;;;;;;1.98;0.60;;;;;;;16.34;66.61;100365.09;7380782;19;20750;-65
2023/08/31 18:28:45;;;;;;;2.17;0.60;;;;;;;16.18;67.50;100361.16;7385878;19;20344;-66
2023/08/31 18:31:12;;;;;;;2.55;0.68;;;;;;;16.05;67.82;100372.78;7382144;19;20361;-65
2023/08/31 18:33:39;;;;;;;2.30;0.65;;;;;;;15.91;69.04;100371.25;7383401;19;20357;-65
2023/08/31 18:36:06;;;;;;;2.10;0.70;;;;;;;15.79;69.68;100373.00;7382344;19;20392;-65
2023/08/31 18:38:33;;;;;;;2.00;0.63;;;;;;;15.67;69.67;100375.53;7380734;19;20385;-65
2023/08/31 18:41:02;;;;;;;1.70;0.68;;;;;;;15.59;70.41;100383.81;7385279;19;20364;-65
2023/08/31 18:43:29;;;;;;;2.08;0.65;;;;;;;15.48;71.29;100383.44;7383785;19;20393;-65
2023/08/31 18:45:56;;;;;;;3.45;0.93;;;;;;;15.39;71.70;100386.63;7388330;19;20708;-65
2023/08/31 18:48:22;;;;;;;2.10;0.77;;;;;;;15.34;71.86;100395.25;7388300;19;20877;-62
2023/08/31 18:50:59;;;;;;;2.03;0.60;;;;;;;15.26;72.88;100395.53;7392224;19;20344;-60
2023/08/31 18:53:26;;;;;;;3.25;0.70;;;;;;;15.17;73.34;100391.44;7388502;19;20452;-62
2023/08/31 18:56:01;;;;;;;2.00;0.60;;;;;;;15.07;73.60;100394.56;7388737;19;20360;-62
2023/08/31 18:58:29;;;;;;;2.92;0.93;;;;;;;14.99;74.17;100402.81;7390345;19;20428;-62
2023/08/31 19:01:01;;;;;;;2.50;0.80;;;;;;;14.91;74.33;100403.84;7390290;19;20368;-61
2023/08/31 19:03:29;;;;;;;1.67;0.70;;;;;;;14.83;74.96;100402.25;7383552;19;20406;-62
2023/08/31 19:05:56;;;;;;;3.47;0.73;;;;;;;14.75;75.63;100405.16;7383725;19;20373;-62
2023/08/31 19:08:23;;;;;;;1.60;0.60;;;;;;;14.67;76.46;100408.84;7379848;19;20876;-61
2023/08/31 19:10:49;;;;;;;1.88;0.75;;;;;;;14.62;76.80;100403.34;7384978;19;20340;-61
2023/08/31 19:13:17;;;;;;;3.45;1.00;;;;;;;14.57;77.54;100405.78;7383943;19;20385;-62
2023/08/31 19:15:43;;;;;;;3.05;0.90;;;;;;;14.51;77.85;100409.25;7387151;19;20365;-60
2023/08/31 19:18:10;;;;;;;4.05;0.88;;;;;;;14.47;78.47;100418.72;7389190;19;20364;-62
2023/08/31 19:20:38;;;;;;;2.90;0.82;;;;;;;14.44;78.64;100413.78;7390676;19;21089;-62
2023/08/31 19:23:05;;;;;;;2.40;0.80;;;;;;;14.40;78.89;100417.91;7391856;19;20356;-61
2023/08/31 19:25:33;;;;;;;2.95;0.70;;;;;;;14.37;79.22;100418.34;7390400;19;20348;-62
2023/08/31 19:28:00;;;;;;;4.53;0.82;;;;;;;14.32;79.41;100421.59;7382297;19;20370;-62
2023/08/31 19:30:27;;;;;;;2.13;0.80;;;;;;;14.30;79.47;100422.84;7386563;19;20363;-62
2023/08/31 19:32:56;;;;;;;5.10;1.65;;;;;;;14.27;79.46;100419.53;7390221;19;20378;-62
2023/08/31 19:35:24;;;;;;;3.10;1.00;;;;;;;14.22;80.23;100427.34;7388731;19;20360;-62
2023/08/31 19:37:55;;;;;;;2.28;0.77;;;;;;;14.20;80.28;100439.28;7391812;19;20360;-62
2023/08/31 19:40:22;;;;;;;2.28;0.80;;;;;;;14.15;80.59;100429.19;7391891;19;20893;-62
2023/08/31 19:42:50;;;;;;;4.10;1.00;;;;;;;14.14;81.12;100429.41;7390187;19;20348;-62
2023/08/31 19:45:17;;;;;;;2.65;0.75;;;;;;;14.09;81.15;100430.03;7389537;19;20372;-62
2023/08/31 19:47:47;;;;;;;2.47;0.70;;;;;;;14.04;81.56;100435.94;7389462;19;20813;-62
2023/08/31 19:50:15;;;;;;;2.67;0.80;;;;;;;14.01;81.67;100433.72;7391048;19;20393;-60
2023/08/31 19:52:44;;;;;;;2.75;0.90;;;;;;;13.99;81.85;100433.09;7392386;19;20381;-61
2023/08/31 19:55:12;;;;;;;3.40;0.80;;;;;;;13.94;82.16;100450.72;7387373;19;20377;-61
2023/08/31 19:57:39;;;;;;;5.10;0.93;;;;;;;13.89;82.44;100448.66;7390574;19;20376;-62
2023/08/31 20:00:07;;;;;;;2.55;0.90;;;;;;;13.83;83.43;100450.31;7386675;19;20368;-61
2023/08/31 20:02:43;;;;;;;3.40;0.90;;;;;;;13.77;83.57;100451.13;7387440;19;20364;-62
2023/08/31 20:05:10;;;;;;;2.67;0.90;;;;;;;13.71;85.18;100446.59;7384949;19;20370;-61
2023/08/31 20:07:37;;;;;;;2.28;1.40;;;;;;;13.67;85.40;100450.69;7387562;19;20898;-62
2023/08/31 20:10:04;;;;;;;2.97;1.23;;;;;;;13.60;86.57;100444.50;7389501;19;20378;-62
2023/08/31 20:12:31;;;;;;;5.13;1.10;;;;;;;13.57;88.25;100447.56;7386324;19;20341;-62
2023/08/31 20:14:58;;;;;;;4.22;1.30;;;;;;;13.53;88.82;100454.31;7388015;19;20369;-62
2023/08/31 20:17:24;;;;;;;2.78;1.30;;;;;;;13.49;89.35;100466.41;7385384;19;20360;-61
2023/08/31 20:19:55;;;;;;;4.28;1.35;;;;;;;13.47;89.12;100461.25;7390312;19;20841;-62
2023/08/31 20:22:22;;;;;;;3.57;2.10;;;;;;;13.43;90.03;100458.19;7384309;19;20452;-61
2023/08/31 20:24:49;;;;;;;5.60;2.50;;;;;;;13.41;90.22;100462.91;7389475;19;20393;-60
2023/08/31 20:27:16;;;;;;;3.85;1.50;;;;;;;13.37;91.34;100461.66;7383984;19;20912;-61
2023/08/31 20:29:43;;;;;;;2.95;1.80;;;;;;;13.35;92.16;100473.53;7386696;19;20345;-60
2023/08/31 20:32:10;;;;;;;5.03;1.80;;;;;;;13.32;92.88;100466.72;7386961;19;20492;-61
2023/08/31 20:34:36;;;;;;;5.32;2.40;;;;;;;13.32;92.25;100464.06;7385709;19;20341;-61
2023/08/31 20:37:04;;;;;;;2.88;1.70;;;;;;;13.33;91.82;100471.06;7387081;19;20883;-62
2023/08/31 20:39:33;;;;;;;3.22;2.00;;;;;;;13.32;91.87;100468.59;7389792;19;20343;-62
2023/08/31 20:42:00;;;;;;;3.33;1.97;;;;;;;13.29;92.50;100469.81;7386840;19;20344;-61
2023/08/31 20:44:28;;;;;;;3.47;2.00;;;;;;;13.28;93.05;100468.13;7386032;19;20438;-62
2023/08/31 20:46:57;;;;;;;3.38;2.00;;;;;;;13.25;93.35;100473.84;7382877;19;20452;-62
2023/08/31 20:49:25;;;;;;;4.40;2.30;;;;;;;13.24;93.78;100482.88;7387316;19;20914;-62
2023/08/31 20:51:51;;;;;;;4.20;2.00;;;;;;;13.22;94.07;100480.41;7388156;19;20772;-62
2023/08/31 20:54:20;;;;;;;3.10;2.15;;;;;;;13.19;94.83;100478.13;7384329;19;20769;-62
2023/08/31 20:56:47;;;;;;;5.43;2.57;;;;;;;13.19;94.75;100472.78;7384526;19;21347;-61
2023/08/31 20:59:14;;;;;;;6.95;2.45;;;;;;;13.18;94.45;100468.50;7383423;19;20387;-62
2023/08/31 21:01:40;;;;;;;4.00;2.40;;;;;;;13.17;94.90;100469.50;7380353;19;20367;-62
2023/08/31 21:04:07;;;;;;;5.18;2.70;;;;;;;13.16;94.51;100467.06;7378350;19;21218;-62
2023/08/31 21:06:34;;;;;;;4.28;2.97;;;;;;;13.13;95.68;100475.44;7376966;19;20510;-61
2023/08/31 21:09:03;;;;;;;3.65;2.75;;;;;;;13.12;95.92;100476.47;7379090;19;20373;-62
2023/08/31 21:11:30;;;;;;;4.78;2.80;;;;;;;13.11;95.83;100477.47;7384578;19;20376;-62
2023/08/31 21:13:57;;;;;;;4.38;2.95;;;;;;;13.09;95.44;100477.69;7381959;19;20365;-61
2023/08/31 21:16:25;;;;;;;5.00;2.72;;;;;;;13.06;95.84;100476.22;7380816;19;20918;-60